الصفحة الرئيسية
METAR-TAF:

METAR-TAF

مطار :

قليبية, تونس

دائرة عرض: 36-51N, خط طول: 011-05E, ارتفاع: 29 متر

مراقبة الطقس الحالي

تاريخ ووقت الإصدار 36 دقيقة قبل الساعة 04:00UTC
ريح 2 عقدةمن اتجاهات متغيرة
درجة الحرارة 19°درجة مئوية
الرطوبة 83%
ضغط 1018 hPa

METAR: DTTL 290400Z AUTO VRB02KT NCD 19/16 Q1018

زمن: 05:36 (04:36 UTC)


TAF: مفقودة

أرصاد الطقس والتوقعات من أكثر من 4000 مطار (تقارير الطقس للمطار METAR والتنبؤ بالطقس بالمطارTAF).

المحطات المتاحة هي النقط الصفراء والحمراء على الخريطة.

حرك المؤشر فوق النقطة لمعرفة اسم المحطة.

ثم انقر لمعرفة أرصاد وتوقعات الطقس.

لتغيير الخارطة: اضغط على الأزرار الخضراء مع رمز الصليب الأسود للتكبير. على الزر الأخضر مع شرطة للتصغير، أو على الأسهم الخضراء للخرائط المجاورة.


METAR-TAF: